Franklin, Massachusetts
Current Conditions -  °F | °C
As of 3:15 PM on Wednesday 28 Jan 2015 (Local Time) from KSFZ Reporting Station
Clear Clear  
Wind Chill:   Ceiling: Unl
Heat Index: 21°   Visibility: 10mi
Dew Point:   Wind: 13mph
Humidity: 54%   Direction: 340°NNW
Pressure: 29.98"   Gusts: 21mph
Location:  42.09°N, 71.4°W
Report Text: KSFZ 282015Z 34011G18KT 10SM CLR M06/M14 A2998 RMK AO1
Loading
Personal Weather Stations






























Interactive Weather Map New forecast layout! Learn more

10-Day Weather Forecast

Advertisements
Track Severe Weather on mobile